Time;durP1;ratioP1;P1;durP2;ratioP2;P2;SDS_P1;SDS_P2;PMS_P1;PMS_P2;Temp;Humidity;BMP_temperature;BMP_pressure;BME280_temperature;BME280_humidity;BME280_pressure;Samples;Min_cycle;Max_cycle;Signal;HPM_P1;HPM_P2
2023/01/07 00:08:30;;;;;;;;;;;;;;;;;;;;;
2023/01/07 00:14:42;;;;;;;;;;;;;;;;;;;;;
2023/01/07 00:17:47;;;;;;;3.83;2.13;;;11.50;99.90;;;;;;4854031;29;20885;-85
2023/01/07 00:20:59;;;;;;;2.63;2.00;;;11.50;99.90;;;;;;4846346;29;20474;-84
2023/01/07 00:23:31;;;;;;;2.10;1.73;;;11.50;99.90;;;;;;4851598;29;20462;-85
2023/01/07 00:27:21;;;;;;;4.10;1.93;;;11.50;99.90;;;;;;4828100;29;20472;-85
2023/01/07 00:29:48;;;;;;;2.73;1.73;;;11.50;99.90;;;;;;4831075;29;20460;-85
2023/01/07 00:35:52;;;;;;;1.60;1.50;;;11.60;99.90;;;;;;4823174;29;20646;-85
2023/01/07 00:48:44;;;;;;;2.17;1.83;;;11.60;99.90;;;;;;4821230;29;20454;-85
2023/01/07 00:51:38;;;;;;;4.80;1.60;;;11.60;99.90;;;;;;4831130;29;20536;-85
2023/01/07 00:54:28;;;;;;;2.60;2.03;;;11.70;99.90;;;;;;4850009;29;20532;-85
2023/01/07 01:00:52;;;;;;;2.97;2.20;;;11.70;99.90;;;;;;4856302;29;20441;-85
2023/01/07 01:04:08;;;;;;;2.10;1.90;;;11.70;99.90;;;;;;4852840;29;20460;-85
2023/01/07 01:07:00;;;;;;;2.87;1.90;;;11.70;99.90;;;;;;4837268;29;20874;-83
2023/01/07 01:13:11;;;;;;;2.87;2.00;;;11.70;99.90;;;;;;4833424;29;20469;-84
2023/01/07 01:16:21;;;;;;;2.43;1.67;;;11.70;99.90;;;;;;4842001;29;20473;-85
2023/01/07 01:22:47;;;;;;;1.73;1.60;;;11.80;99.90;;;;;;4850161;29;20474;-85
2023/01/07 01:25:33;;;;;;;;;;;;;;;;;;;;;
2023/01/07 01:28:23;;;;;;;;;;;;;;;;;;;;;
2023/01/07 01:35:01;;;;;;;;;;;;;;;;;;;;;
2023/01/07 01:37:53;;;;;;;1.80;1.50;;;11.80;99.90;;;;;;4850000;29;20453;-85
2023/01/07 01:40:55;;;;;;;;;;;;;;;;;;;;;
2023/01/07 01:44:24;;;;;;;2.50;1.60;;;11.80;99.90;;;;;;4853483;29;20535;-85
2023/01/07 01:47:27;;;;;;;;;;;;;;;;;;;;;
2023/01/07 01:54:02;;;;;;;;;;;;;;;;;;;;;
2023/01/07 01:56:39;;;;;;;1.73;1.20;;;11.80;99.90;;;;;;4870893;29;20587;-85
2023/01/07 01:59:20;;;;;;;1.67;1.30;;;11.80;99.90;;;;;;4852565;29;20508;-85
2023/01/07 02:01:52;;;;;;;1.60;1.20;;;11.80;99.90;;;;;;4847002;29;20477;-85
2023/01/07 02:04:23;;;;;;;1.90;1.33;;;11.80;99.90;;;;;;4859910;29;20536;-84
2023/01/07 02:07:16;;;;;;;1.93;1.47;;;11.80;99.90;;;;;;4862401;29;20437;-85
2023/01/07 02:09:49;;;;;;;2.33;1.50;;;11.80;99.90;;;;;;4850973;29;20470;-84
2023/01/07 02:12:50;;;;;;;;;;;;;;;;;;;;;
2023/01/07 02:15:30;;;;;;;4.17;1.73;;;11.80;99.90;;;;;;4853887;29;20885;-84
2023/01/07 02:18:40;;;;;;;;;;;;;;;;;;;;;
2023/01/07 02:21:46;;;;;;;2.17;1.40;;;11.80;99.90;;;;;;4850747;29;20500;-85
2023/01/07 02:25:13;;;;;;;;;;;;;;;;;;;;;
2023/01/07 02:31:14;;;;;;;;;;;;;;;;;;;;;
2023/01/07 02:34:40;;;;;;;;;;;;;;;;;;;;;
2023/01/07 02:38:03;;;;;;;1.50;1.10;;;11.60;99.90;;;;;;4855266;29;20528;-85
2023/01/07 02:41:02;;;;;;;1.50;1.03;;;11.50;99.90;;;;;;4852587;29;20428;-84
2023/01/07 02:46:52;;;;;;;2.07;1.80;;;11.40;99.90;;;;;;4851698;29;20489;-85
2023/01/07 02:49:58;;;;;;;1.77;1.40;;;11.30;99.90;;;;;;4856518;29;20512;-85
2023/01/07 02:52:39;;;;;;;2.30;1.10;;;11.30;99.90;;;;;;4854843;29;20461;-85
2023/01/07 02:55:57;;;;;;;1.40;1.30;;;11.20;99.90;;;;;;4853840;29;20425;-85
2023/01/07 02:59:03;;;;;;;1.60;1.10;;;11.20;99.90;;;;;;4847819;29;20536;-82
2023/01/07 03:02:03;;;;;;;2.80;1.10;;;11.20;99.90;;;;;;4849502;29;20437;-85
2023/01/07 03:04:45;;;;;;;1.33;1.10;;;11.10;99.90;;;;;;4855315;29;20819;-85
2023/01/07 03:07:23;;;;;;;5.63;1.10;;;11.10;99.90;;;;;;4842704;29;21017;-85
2023/01/07 03:10:06;;;;;;;2.33;1.23;;;11.10;99.90;;;;;;4850035;29;20434;-85
2023/01/07 03:12:44;;;;;;;1.97;1.00;;;11.10;99.90;;;;;;4855389;29;20453;-86
2023/01/07 03:15:29;;;;;;;1.30;1.13;;;11.00;99.90;;;;;;4848545;29;20456;-84
2023/01/07 03:18:17;;;;;;;1.40;0.93;;;11.00;99.90;;;;;;4855212;29;20495;-85
2023/01/07 03:20:46;;;;;;;1.33;1.10;;;11.00;99.90;;;;;;4849958;29;20857;-85
2023/01/07 03:23:22;;;;;;;1.93;1.20;;;11.00;99.90;;;;;;4855385;29;20463;-84
2023/01/07 03:26:00;;;;;;;1.80;1.27;;;11.00;99.90;;;;;;4846647;29;20500;-84
2023/01/07 03:28:39;;;;;;;1.57;1.10;;;11.00;99.90;;;;;;4858231;29;20440;-85
2023/01/07 03:31:14;;;;;;;1.47;1.30;;;11.00;99.90;;;;;;4851672;29;20436;-85
2023/01/07 03:34:28;;;;;;;3.40;1.40;;;11.00;99.90;;;;;;4850056;29;20521;-85
2023/01/07 03:37:25;;;;;;;2.67;1.27;;;11.00;99.90;;;;;;4858917;29;20470;-85
2023/01/07 03:40:09;;;;;;;;;;;;;;;;;;;;;
2023/01/07 03:43:18;;;;;;;2.00;1.27;;;11.00;99.90;;;;;;4844124;29;20528;-84
2023/01/07 03:45:58;;;;;;;;;;;;;;;;;;;;;
2023/01/07 03:48:58;;;;;;;1.67;1.20;;;11.00;99.90;;;;;;4860137;29;20508;-84
2023/01/07 03:51:45;;;;;;;;;;;;;;;;;;;;;
2023/01/07 03:54:44;;;;;;;;;;;;;;;;;;;;;
2023/01/07 03:57:33;;;;;;;2.47;1.30;;;11.00;99.90;;;;;;4850043;29;20513;-84
2023/01/07 04:00:34;;;;;;;1.83;1.73;;;11.00;99.90;;;;;;4853037;29;20446;-84
2023/01/07 04:06:27;;;;;;;1.63;1.53;;;11.10;99.90;;;;;;4849294;29;20469;-85
2023/01/07 04:09:17;;;;;;;1.50;1.30;;;11.10;99.90;;;;;;4854806;29;20446;-85
2023/01/07 04:12:15;;;;;;;1.73;1.20;;;11.10;99.90;;;;;;4851111;29;20444;-85
2023/01/07 04:15:04;;;;;;;2.90;1.20;;;11.10;99.90;;;;;;4859052;29;20970;-85
2023/01/07 04:17:48;;;;;;;1.70;1.33;;;11.20;99.90;;;;;;4845664;29;20513;-84
2023/01/07 04:24:14;;;;;;;1.50;1.30;;;11.20;99.90;;;;;;4857105;29;20860;-83
2023/01/07 04:27:02;;;;;;;;;;;;;;;;;;;;;
2023/01/07 04:30:44;;;;;;;;;;;;;;;;;;;;;
2023/01/07 04:36:54;;;;;;;4.67;1.47;;;11.30;1.00;;;;;;4849118;29;21227;-85
2023/01/07 04:39:27;;;;;;;2.27;1.60;;;11.30;1.00;;;;;;4843175;29;20870;-84
2023/01/07 04:42:01;;;;;;;2.37;1.50;;;11.30;1.00;;;;;;4849620;29;20563;-85
2023/01/07 04:44:54;;;;;;;1.97;1.40;;;11.30;1.00;;;;;;4856930;29;20503;-85
2023/01/07 04:51:00;;;;;;;;;;;;;;;;;;;;;
2023/01/07 04:53:57;;;;;;;4.50;1.20;;;11.20;1.00;;;;;;4854777;29;20552;-85
2023/01/07 04:56:55;;;;;;;1.90;1.27;;;11.20;1.00;;;;;;4854192;29;20927;-84
2023/01/07 04:59:49;;;;;;;6.07;1.53;;;11.20;99.90;;;;;;4854692;29;20459;-84
2023/01/07 05:02:30;;;;;;;;;;;;;;;;;;;;;
2023/01/07 05:06:08;;;;;;;;;;;;;;;;;;;;;
2023/01/07 05:08:36;;;;;;;2.07;1.20;;;11.20;99.90;;;;;;4853700;29;20438;-85
2023/01/07 05:11:21;;;;;;;1.50;1.10;;;11.20;1.00;;;;;;4859537;29;20465;-84
2023/01/07 05:14:20;;;;;;;;;;;;;;;;;;;;;
2023/01/07 05:16:51;;;;;;;2.07;1.07;;;11.20;1.00;;;;;;4851493;29;21020;-85
2023/01/07 05:19:35;;;;;;;;;;;;;;;;;;;;;
2023/01/07 05:22:19;;;;;;;2.03;1.73;;;11.10;99.90;;;;;;4853789;29;20557;-85
2023/01/07 05:25:29;;;;;;;1.20;1.00;;;11.10;99.90;;;;;;4852089;29;20476;-85
2023/01/07 05:28:01;;;;;;;1.50;1.40;;;11.10;96.70;;;;;;4847975;29;20474;-85
2023/01/07 05:30:46;;;;;;;;;;;;;;;;;;;;;
2023/01/07 05:33:12;;;;;;;2.17;1.10;;;11.00;1.00;;;;;;4853190;29;20779;-84
2023/01/07 05:36:34;;;;;;;;;;;;;;;;;;;;;
2023/01/07 05:39:39;;;;;;;1.53;0.93;;;10.90;1.00;;;;;;4840421;29;20264;-85
2023/01/07 05:42:07;;;;;;;2.30;1.07;;;10.90;1.00;;;;;;4869895;29;20547;-85
2023/01/07 05:48:38;;;;;;;2.17;1.20;;;10.80;1.00;;;;;;4856340;29;20933;-84
2023/01/07 05:54:15;;;;;;;3.27;1.13;;;10.70;1.00;;;;;;4851785;29;20857;-85
2023/01/07 06:00:24;;;;;;;11.70;6.37;;;10.60;1.00;;;;;;4851235;29;20459;-85
2023/01/07 06:06:31;;;;;;;1.90;1.27;;;10.60;99.90;;;;;;4853665;29;20846;-84
2023/01/07 06:09:23;;;;;;;;;;;;;;;;;;;;;
2023/01/07 06:12:24;;;;;;;2.00;1.47;;;10.50;1.00;;;;;;4837998;29;20448;-85
2023/01/07 06:15:06;;;;;;;2.03;1.20;;;10.50;1.00;;;;;;4844523;29;20444;-84
2023/01/07 06:21:03;;;;;;;1.60;1.27;;;10.50;1.00;;;;;;4840006;29;20442;-85
2023/01/07 06:23:45;;;;;;;3.57;1.67;;;10.50;1.00;;;;;;4845541;29;20465;-85
2023/01/07 06:26:17;;;;;;;3.40;1.57;;;10.50;1.00;;;;;;4836912;29;20514;-85
2023/01/07 06:29:10;;;;;;;;;;;;;;;;;;;;;
2023/01/07 06:31:55;;;;;;;2.10;1.60;;;10.50;1.00;;;;;;4851327;29;20520;-83
2023/01/07 06:34:30;;;;;;;1.87;1.40;;;10.60;1.00;;;;;;4840128;29;20449;-85
2023/01/07 06:37:08;;;;;;;2.10;1.80;;;10.50;1.00;;;;;;4847084;29;20437;-85
2023/01/07 06:43:01;;;;;;;3.30;1.50;;;10.60;1.00;;;;;;4852889;29;20793;-85
2023/01/07 06:45:55;;;;;;;;;;;;;;;;;;;;;
2023/01/07 06:48:38;;;;;;;3.87;1.87;;;10.50;1.00;;;;;;4852264;29;20448;-85
2023/01/07 06:52:04;;;;;;;2.43;1.37;;;10.40;1.00;;;;;;4852722;29;20473;-84
2023/01/07 06:54:45;;;;;;;3.90;1.97;;;10.40;1.00;;;;;;4844738;29;20481;-84
2023/01/07 06:57:32;;;;;;;;;;;;;;;;;;;;;
2023/01/07 07:00:30;;;;;;;;;;;;;;;;;;;;;
2023/01/07 07:06:26;;;;;;;2.40;1.63;;;10.50;1.00;;;;;;4853370;29;20465;-85
2023/01/07 07:09:00;;;;;;;1.67;1.30;;;10.60;1.00;;;;;;4845120;29;20460;-84
2023/01/07 07:12:05;;;;;;;2.50;1.67;;;10.60;99.90;;;;;;4857403;29;20432;-85
2023/01/07 07:14:50;;;;;;;5.70;1.97;;;10.60;99.90;;;;;;4841311;29;20561;-84
2023/01/07 07:17:49;;;;;;;;;;;;;;;;;;;;;
2023/01/07 07:20:58;;;;;;;;;;;;;;;;;;;;;
2023/01/07 07:24:19;;;;;;;2.20;1.60;;;10.80;34.30;;;;;;4849970;29;20476;-85
2023/01/07 07:27:03;;;;;;;2.80;1.87;;;10.80;1.00;;;;;;4841723;29;21284;-85
2023/01/07 07:30:07;;;;;;;2.80;2.20;;;10.80;1.00;;;;;;4861735;29;20972;-84
2023/01/07 07:32:33;;;;;;;11.43;10.43;;;10.80;99.90;;;;;;4867842;29;20465;-85
2023/01/07 07:34:58;;;;;;;7.93;7.13;;;10.80;99.90;;;;;;4854068;29;20450;-86
2023/01/07 07:37:26;;;;;;;7.43;6.90;;;10.90;99.90;;;;;;4855741;29;20449;-85
2023/01/07 07:39:52;;;;;;;2.27;1.73;;;11.00;99.90;;;;;;4855215;29;20232;-86
2023/01/07 07:42:26;;;;;;;4.27;2.70;;;11.00;1.00;;;;;;4853767;29;20958;-86
2023/01/07 07:44:51;;;;;;;3.53;1.90;;;11.10;1.00;;;;;;4867034;29;20219;-86
2023/01/07 07:47:17;;;;;;;3.20;2.33;;;11.10;99.90;;;;;;4852597;29;20481;-85
2023/01/07 07:49:43;;;;;;;2.20;2.00;;;11.10;55.70;;;;;;4853204;29;20193;-86
2023/01/07 07:52:08;;;;;;;3.97;2.20;;;11.20;1.00;;;;;;4854876;29;20215;-87
2023/01/07 07:54:34;;;;;;;3.10;1.80;;;11.20;1.00;;;;;;4858280;29;20200;-84
2023/01/07 07:57:02;;;;;;;3.30;2.07;;;11.20;99.90;;;;;;4865890;29;20192;-87
2023/01/07 07:59:30;;;;;;;3.27;1.80;;;11.20;99.90;;;;;;4847387;29;20456;-85
2023/01/07 08:02:00;;;;;;;4.30;1.90;;;11.20;89.50;;;;;;4857204;29;20473;-86
2023/01/07 08:04:32;;;;;;;2.57;1.70;;;11.20;1.00;;;;;;4855043;29;20536;-85
2023/01/07 08:07:01;;;;;;;1.67;1.33;;;11.20;1.00;;;;;;4858103;29;20462;-85
2023/01/07 08:09:34;;;;;;;3.33;1.83;;;11.20;1.00;;;;;;4861612;29;20513;-86
2023/01/07 08:12:09;;;;;;;4.47;1.80;;;11.20;1.00;;;;;;4855783;29;20473;-85
2023/01/07 08:14:47;;;;;;;3.00;1.60;;;11.30;1.00;;;;;;4852178;29;20469;-85
2023/01/07 08:17:16;;;;;;;4.10;1.80;;;11.30;1.00;;;;;;4854198;29;20479;-86
2023/01/07 08:19:44;;;;;;;1.40;1.30;;;11.30;99.90;;;;;;4849423;29;20442;-87
2023/01/07 08:22:29;;;;;;;1.67;1.30;;;11.30;99.90;;;;;;4843366;29;20499;-85
2023/01/07 08:24:55;;;;;;;2.40;1.67;;;11.30;99.90;;;;;;4870471;29;20865;-86
2023/01/07 08:27:21;;;;;;;3.30;1.80;;;11.30;99.90;;;;;;4858409;29;20835;-85
2023/01/07 08:29:49;;;;;;;8.50;1.87;;;11.40;99.90;;;;;;4855046;29;20470;-86
2023/01/07 08:32:20;;;;;;;2.20;2.00;;;11.40;99.90;;;;;;4850881;29;20642;-86
2023/01/07 08:34:52;;;;;;;3.73;2.20;;;11.40;99.90;;;;;;4854922;29;20520;-86
2023/01/07 08:37:30;;;;;;;6.60;4.83;;;11.50;99.90;;;;;;4856026;29;20444;-86
2023/01/07 08:39:56;;;;;;;5.40;3.60;;;11.50;96.00;;;;;;4853742;29;20454;-85
2023/01/07 08:42:21;;;;;;;8.83;5.00;;;11.60;31.40;;;;;;4862186;29;20964;-86
2023/01/07 08:44:49;;;;;;;4.77;2.63;;;11.60;1.00;;;;;;4842994;29;20209;-85
2023/01/07 08:47:15;;;;;;;2.73;2.23;;;11.70;1.00;;;;;;4855646;29;20199;-86
2023/01/07 08:49:40;;;;;;;2.13;1.80;;;11.90;1.00;;;;;;4855820;29;20451;-83
2023/01/07 08:52:11;;;;;;;2.90;2.17;;;12.40;1.00;;;;;;4856268;29;20206;-86
2023/01/07 09:02:31;;;;;;;;;;;;;;;;;;;;;
2023/01/07 09:05:06;;;;;;;2.77;1.73;;;15.50;1.00;;;;;;4831285;29;20862;-87
2023/01/07 09:07:32;;;;;;;4.57;1.77;;;15.80;1.00;;;;;;4843965;29;20458;-88
2023/01/07 09:10:18;;;;;;;2.80;1.60;;;15.70;1.00;;;;;;4851573;29;20922;-87
2023/01/07 09:13:01;;;;;;;;;;;;;;;;;;;;;
2023/01/07 09:15:30;;;;;;;4.10;2.57;;;15.40;1.00;;;;;;4840025;29;20446;-87
2023/01/07 09:18:08;;;;;;;;;;;;;;;;;;;;;
2023/01/07 09:20:37;;;;;;;2.67;2.03;;;15.30;1.00;;;;;;4852108;29;20445;-88
2023/01/07 09:23:05;;;;;;;2.50;1.70;;;15.20;1.00;;;;;;4846295;29;20847;-86
2023/01/07 09:25:31;;;;;;;3.50;1.97;;;15.20;1.00;;;;;;4838628;29;20478;-88
2023/01/07 09:27:58;;;;;;;2.90;1.80;;;15.10;1.00;;;;;;4850430;29;20444;-88
2023/01/07 09:30:24;;;;;;;2.90;1.80;;;15.10;1.00;;;;;;4840935;29;20703;-88
2023/01/07 09:33:01;;;;;;;4.30;2.33;;;15.10;1.00;;;;;;4838619;29;20560;-88
2023/01/07 09:36:01;;;;;;;2.80;2.00;;;15.10;1.00;;;;;;4844271;29;20675;-87
2023/01/07 09:38:35;;;;;;;3.40;1.93;;;15.20;1.00;;;;;;4848769;29;20492;-86
2023/01/07 09:42:00;;;;;;;3.90;2.80;;;15.20;1.00;;;;;;4838752;29;20485;-88
2023/01/07 09:44:43;;;;;;;3.43;2.17;;;15.30;1.00;;;;;;4840921;29;20475;-87
2023/01/07 09:47:26;;;;;;;2.93;2.73;;;15.40;1.00;;;;;;4835718;29;20443;-87
2023/01/07 09:50:54;;;;;;;5.13;4.40;;;15.50;1.00;;;;;;4847595;29;20449;-86
2023/01/07 09:53:56;;;;;;;3.33;2.90;;;15.50;1.00;;;;;;4844827;29;20823;-87
2023/01/07 10:07:35;;;;;;;;;;;;;;;;;;;;;
2023/01/07 11:03:36;;;;;;;;;;;;;;;;;;;;;
2023/01/07 11:07:08;;;;;;;19.97;5.33;;;15.60;1.00;;;;;;4778193;29;20515;-87
2023/01/07 12:58:28;;;;;;;;;;;;;;;;;;;;;
2023/01/07 13:01:33;;;;;;;;;;;;;;;;;;;;;
2023/01/07 13:07:42;;;;;;;;;;;;;;;;;;;;;
2023/01/07 13:10:54;;;;;;;;;;;;;;;;;;;;;
2023/01/07 13:24:50;;;;;;;2.03;1.77;;;18.50;99.90;;;;;;4773435;30;20472;-85
2023/01/07 13:31:16;;;;;;;2.37;1.80;;;18.20;99.90;;;;;;4731442;30;20445;-86
2023/01/07 13:34:39;;;;;;;;;;;;;;;;;;;;;
2023/01/07 13:38:08;;;;;;;;;;;;;;;;;;;;;
2023/01/07 14:33:32;;;;;;;3.50;1.90;;;16.80;99.90;;;;;;4740557;30;20489;-86
2023/01/07 14:50:33;;;;;;;;;;;;;;;;;;;;;
2023/01/07 15:18:32;;;;;;;4.47;3.00;;;14.00;99.90;;;;;;4591248;31;20449;-87
2023/01/07 16:08:09;;;;;;;3.80;2.80;;;11.50;99.90;;;;;;4992710;23;20509;-86
2023/01/07 16:22:47;;;;;;;;;;;;;;;;;;;;;
2023/01/07 16:25:58;;;;;;;5.20;2.47;;;11.20;1.00;;;;;;4724148;30;20874;-87
2023/01/07 16:36:59;;;;;;;5.40;3.07;;;11.30;1.00;;;;;;5308816;23;20576;-87
2023/01/07 16:39:46;;;;;;;5.80;3.73;;;11.30;1.00;;;;;;4857169;29;20490;-87
2023/01/07 16:42:21;;;;;;;12.30;6.87;;;11.40;1.00;;;;;;4856545;29;20457;-87
2023/01/07 16:44:50;;;;;;;9.33;5.93;;;11.40;1.00;;;;;;4832906;29;20470;-87
2023/01/07 16:47:32;;;;;;;7.23;4.50;;;11.40;1.00;;;;;;4850831;29;20504;-87
2023/01/07 16:50:13;;;;;;;3.90;3.33;;;11.40;1.00;;;;;;4849058;29;20496;-88
2023/01/07 16:52:55;;;;;;;7.50;5.37;;;11.40;1.00;;;;;;4831811;29;20516;-87
2023/01/07 16:55:49;;;;;;;73.13;29.43;;;11.40;1.00;;;;;;4841554;29;20974;-88
2023/01/07 16:58:29;;;;;;;61.63;21.70;;;11.40;1.00;;;;;;4839755;29;20443;-88
2023/01/07 17:00:59;;;;;;;40.67;19.90;;;11.40;1.00;;;;;;4838350;29;20461;-87
2023/01/07 17:03:25;;;;;;;7.90;5.73;;;11.40;1.00;;;;;;4842525;29;21062;-89
2023/01/07 17:06:06;;;;;;;5.13;4.60;;;11.40;1.00;;;;;;4844509;29;20473;-88
2023/01/07 17:08:50;;;;;;;4.07;3.00;;;11.40;1.00;;;;;;4846169;29;20445;-88
2023/01/07 17:11:34;;;;;;;;;;;;;;;;;;;;;
2023/01/07 17:14:05;;;;;;;5.37;2.90;;;11.50;1.00;;;;;;4832905;29;21030;-88
2023/01/07 17:17:02;;;;;;;3.43;2.40;;;11.50;1.00;;;;;;4843118;29;20430;-87
2023/01/07 17:19:39;;;;;;;3.60;2.30;;;11.50;1.00;;;;;;4837724;29;20536;-86
2023/01/07 17:22:34;;;;;;;3.40;2.37;;;11.40;1.00;;;;;;4851713;29;20492;-87
2023/01/07 17:25:05;;;;;;;5.90;3.10;;;11.40;1.00;;;;;;4841295;29;20498;-87
2023/01/07 17:27:33;;;;;;;5.10;2.80;;;11.30;1.00;;;;;;4856404;29;20470;-87
2023/01/07 17:30:15;;;;;;;;;;;;;;;;;;;;;
2023/01/07 17:32:49;;;;;;;3.67;3.37;;;11.40;1.00;;;;;;4850289;29;20549;-86
2023/01/07 17:36:07;;;;;;;4.53;3.40;;;11.40;1.00;;;;;;4853131;29;21158;-87
2023/01/07 17:38:32;;;;;;;3.67;2.70;;;11.40;1.00;;;;;;4864846;29;20955;-86
2023/01/07 17:43:32;;;;;;;5.53;2.77;;;11.40;1.00;;;;;;4845110;29;20429;-87
2023/01/07 17:44:13;;;;;;;2.43;2.23;;;11.40;1.00;;;;;;4847653;29;20284;-88
2023/01/07 17:46:51;;;;;;;;;;;;;;;;;;;;;
2023/01/07 17:49:20;;;;;;;3.90;2.37;;;11.60;1.00;;;;;;4871911;29;20445;-88
2023/01/07 17:51:50;;;;;;;2.90;2.57;;;11.70;1.00;;;;;;4868679;29;20450;-87
2023/01/07 17:54:25;;;;;;;2.70;2.03;;;11.80;1.00;;;;;;4851326;29;20461;-88
2023/01/07 17:57:01;;;;;;;3.53;2.13;;;11.80;1.00;;;;;;4854969;29;20442;-88
2023/01/07 17:59:48;;;;;;;;;;;;;;;;;;;;;
2023/01/07 18:02:33;;;;;;;3.50;2.50;;;11.90;1.00;;;;;;4855839;29;20485;-87
2023/01/07 18:05:18;;;;;;;5.07;2.50;;;11.90;1.00;;;;;;4856170;29;20477;-88
2023/01/07 18:07:56;;;;;;;3.43;2.50;;;11.90;1.00;;;;;;4843197;29;20976;-87
2023/01/07 18:12:28;;;;;;;2.80;2.27;;;11.90;1.00;;;;;;4860420;29;20448;-88
2023/01/07 18:13:28;;;;;;;4.17;2.47;;;12.00;99.90;;;;;;4859145;29;20486;-88
2023/01/07 18:15:57;;;;;;;2.70;2.13;;;12.00;99.90;;;;;;4852833;29;20457;-87
2023/01/07 18:18:27;;;;;;;2.90;2.00;;;12.00;99.90;;;;;;4856166;29;20585;-87
2023/01/07 18:21:03;;;;;;;;;;;;;;;;;;;;;
2023/01/07 18:23:36;;;;;;;3.10;2.27;;;12.00;99.90;;;;;;4872661;29;20479;-88
2023/01/07 18:26:37;;;;;;;;;;;;;;;;;;;;;
2023/01/07 18:29:28;;;;;;;;;;;;;;;;;;;;;
2023/01/07 18:32:21;;;;;;;3.37;2.70;;;12.10;99.90;;;;;;4860239;29;20465;-88
2023/01/07 18:35:17;;;;;;;;;;;;;;;;;;;;;
2023/01/07 18:38:11;;;;;;;;;;;;;;;;;;;;;
2023/01/07 18:40:55;;;;;;;4.20;2.70;;;12.10;99.90;;;;;;4856111;29;20458;-88
2023/01/07 18:43:33;;;;;;;3.47;1.83;;;12.10;99.90;;;;;;4845625;29;20458;-88
2023/01/07 18:46:18;;;;;;;2.57;1.97;;;12.10;99.90;;;;;;4854249;29;20477;-88
2023/01/07 18:52:02;;;;;;;2.40;2.13;;;12.20;99.90;;;;;;4861730;29;21021;-87
2023/01/07 18:54:40;;;;;;;3.67;2.43;;;12.20;99.90;;;;;;4853509;29;20441;-87
2023/01/07 18:57:41;;;;;;;;;;;;;;;;;;;;;
2023/01/07 19:00:22;;;;;;;2.77;2.17;;;12.20;99.90;;;;;;4848001;29;20536;-87
2023/01/07 19:03:14;;;;;;;2.43;1.90;;;12.30;99.90;;;;;;4847970;29;20472;-87
2023/01/07 19:05:40;;;;;;;2.83;2.27;;;12.30;99.90;;;;;;4852877;29;20476;-87
2023/01/07 19:08:33;;;;;;;;;;;;;;;;;;;;;
2023/01/07 19:11:54;;;;;;;3.60;2.00;;;12.30;99.90;;;;;;4853996;29;20509;-89
2023/01/07 19:14:23;;;;;;;3.13;2.10;;;12.30;99.90;;;;;;4859208;29;20453;-87
2023/01/07 19:17:01;;;;;;;;;;;;;;;;;;;;;
2023/01/07 19:20:16;;;;;;;2.80;2.00;;;12.30;99.90;;;;;;4862762;29;20539;-86
2023/01/07 19:22:25;;;;;;;2.63;1.90;;;12.30;99.90;;;;;;4860729;23;20557;-86
2023/01/07 19:25:05;;;;;;;3.80;2.73;;;12.20;99.90;;;;;;4875361;29;20451;-86
2023/01/07 19:27:43;;;;;;;;;;;;;;;;;;;;;
2023/01/07 19:30:10;;;;;;;2.80;2.17;;;12.20;99.90;;;;;;4861085;29;20437;-87
2023/01/07 19:33:15;;;;;;;3.93;2.50;;;12.20;99.90;;;;;;4868465;29;20477;-86
2023/01/07 19:38:59;;;;;;;;;;;;;;;;;;;;;
2023/01/07 19:42:29;;;;;;;2.90;2.60;;;12.10;99.90;;;;;;4860151;29;20451;-87
2023/01/07 19:45:13;;;;;;;2.97;2.20;;;12.10;99.90;;;;;;4860357;29;20478;-88
2023/01/07 19:48:27;;;;;;;3.40;2.30;;;12.10;99.90;;;;;;4869690;29;20880;-87
2023/01/07 19:51:18;;;;;;;3.30;2.07;;;12.10;99.90;;;;;;4862986;29;20559;-87
2023/01/07 19:54:14;;;;;;;;;;;;;;;;;;;;;
2023/01/07 19:57:18;;;;;;;3.13;1.67;;;12.10;99.90;;;;;;4868016;29;20875;-86
2023/01/07 20:00:23;;;;;;;;;;;;;;;;;;;;;
2023/01/07 20:06:34;;;;;;;;;;;;;;;;;;;;;
2023/01/07 20:09:07;;;;;;;3.60;2.10;;;12.00;1.00;;;;;;4870457;29;20961;-85
2023/01/07 20:11:41;;;;;;;3.50;2.37;;;11.90;1.00;;;;;;4859325;29;20437;-87
2023/01/07 20:14:13;;;;;;;2.50;2.30;;;11.80;32.50;;;;;;4862370;29;20824;-86
2023/01/07 20:16:40;;;;;;;2.70;2.37;;;11.70;99.90;;;;;;4859157;29;21081;-86
2023/01/07 20:19:12;;;;;;;3.57;2.43;;;11.50;99.90;;;;;;4865439;29;20523;-85
2023/01/07 20:21:40;;;;;;;4.40;2.10;;;11.40;1.00;;;;;;4868160;29;20436;-85
2023/01/07 20:25:00;;;;;;;2.80;2.40;;;11.30;1.00;;;;;;4868589;29;20455;-86
2023/01/07 20:27:02;;;;;;;2.33;1.77;;;11.20;99.90;;;;;;4863804;29;20476;-87
2023/01/07 20:29:31;;;;;;;2.80;2.20;;;11.20;99.90;;;;;;4877086;29;20444;-86
2023/01/07 20:32:06;;;;;;;3.00;2.17;;;11.10;99.90;;;;;;4875043;29;20509;-86
2023/01/07 20:34:54;;;;;;;3.37;2.67;;;11.10;1.00;;;;;;4876686;29;20448;-87
2023/01/07 20:37:20;;;;;;;3.57;2.70;;;11.10;1.00;;;;;;4870500;29;20500;-87
2023/01/07 20:39:55;;;;;;;3.70;2.57;;;11.10;1.00;;;;;;4867420;29;20508;-86
2023/01/07 20:42:25;;;;;;;4.17;2.20;;;11.10;1.00;;;;;;4876326;29;20503;-88
2023/01/07 20:44:59;;;;;;;2.93;2.23;;;11.10;1.00;;;;;;4868578;29;21020;-87
2023/01/07 20:47:33;;;;;;;2.13;1.80;;;11.10;1.00;;;;;;4879743;29;20451;-87
2023/01/07 20:50:12;;;;;;;;;;;;;;;;;;;;;
2023/01/07 20:55:56;;;;;;;2.70;2.00;;;11.10;1.00;;;;;;4865135;29;20437;-87
2023/01/07 20:59:16;;;;;;;;;;;;;;;;;;;;;
2023/01/07 21:02:25;;;;;;;2.50;2.10;;;11.20;1.00;;;;;;4859799;29;20953;-87
2023/01/07 21:08:05;;;;;;;3.30;1.70;;;11.20;1.00;;;;;;4865403;29;20585;-87
2023/01/07 21:11:10;;;;;;;3.10;1.93;;;11.20;1.00;;;;;;4862300;29;20460;-87
2023/01/07 21:13:41;;;;;;;2.00;1.80;;;11.20;1.00;;;;;;4856783;29;20465;-86
2023/01/07 21:39:34;;;;;;;2.17;1.47;;;11.30;1.00;;;;;;1444776;27;20483;-87
2023/01/07 22:13:31;;;;;;;1.70;1.17;;;11.50;1.00;;;;;;4662170;30;20506;-86
2023/01/07 22:16:12;;;;;;;2.40;1.03;;;11.50;1.00;;;;;;4700482;30;20455;-85
2023/01/07 22:19:13;;;;;;;;;;;;;;;;;;;;;
2023/01/07 22:21:55;;;;;;;1.93;1.57;;;11.50;1.00;;;;;;4829019;29;20990;-85
2023/01/07 22:24:38;;;;;;;2.87;1.90;;;11.50;1.00;;;;;;4851179;29;20431;-84
2023/01/07 22:27:28;;;;;;;2.80;1.77;;;11.50;1.00;;;;;;4875121;29;20559;-84
2023/01/07 22:30:39;;;;;;;;;;;;;;;;;;;;;
2023/01/07 22:33:56;;;;;;;;;;;;;;;;;;;;;
2023/01/07 22:57:23;;;;;;;;;;;;;;;;;;;;;
2023/01/07 22:59:49;;;;;;;1.93;1.30;;;11.40;1.00;;;;;;4863573;29;20545;-87
2023/01/07 23:02:57;;;;;;;2.37;1.20;;;11.40;1.00;;;;;;4854444;29;20840;-85
2023/01/07 23:05:36;;;;;;;1.50;1.10;;;11.40;1.00;;;;;;4841908;29;20214;-87
2023/01/07 23:08:02;;;;;;;1.77;1.53;;;11.40;1.00;;;;;;4846664;29;20463;-87
2023/01/07 23:10:33;;;;;;;1.93;1.33;;;11.40;1.00;;;;;;4837504;29;20950;-87
2023/01/07 23:13:24;;;;;;;1.90;1.40;;;11.40;6.80;;;;;;4851093;29;20489;-87
2023/01/07 23:16:10;;;;;;;2.00;1.43;;;11.40;36.80;;;;;;4838381;29;20452;-87
2023/01/07 23:18:44;;;;;;;3.10;1.03;;;11.50;99.90;;;;;;4841559;29;20518;-85
2023/01/07 23:21:36;;;;;;;2.37;1.43;;;11.40;99.90;;;;;;4849116;29;20438;-87
2023/01/07 23:24:45;;;;;;;2.23;1.60;;;11.40;99.90;;;;;;4852557;29;20470;-87
2023/01/07 23:28:10;;;;;;;;;;;;;;;;;;;;;
2023/01/07 23:31:35;;;;;;;;;;;;;;;;;;;;;
2023/01/07 23:35:00;;;;;;;;;;;;;;;;;;;;;
2023/01/07 23:37:56;;;;;;;;;;;;;;;;;;;;;
2023/01/07 23:47:44;;;;;;;2.10;1.90;;;11.10;1.00;;;;;;4834548;29;20458;-87
2023/01/07 23:50:38;;;;;;;;;;;;;;;;;;;;;
2023/01/07 23:53:35;;;;;;;2.47;1.70;;;11.10;82.00;;;;;;4844269;29;20564;-87
2023/01/07 23:56:51;;;;;;;4.20;2.30;;;11.10;99.90;;;;;;4824814;29;20513;-88
2023/01/07 23:59:05;;;;;;;2.83;2.30;;;11.10;99.90;;;;;;4847907;29;20472;-87
